Time;durP1;ratioP1;P1;durP2;ratioP2;P2;SDS_P1;SDS_P2;PMS_P1;PMS_P2;Temp;Humidity;BMP_temperature;BMP_pressure;BME280_temperature;BME280_humidity;BME280_pressure;Samples;Min_cycle;Max_cycle;Signal;HPM_P1;HPM_P2
2023/05/02 00:01:38;;;;;;;8.03;4.93;;;10.00;99.90;;;;;;10261285;23;20190;-67
2023/05/02 00:05:40;;;;;;;6.17;4.90;;;10.00;99.90;;;;;;10136331;23;20183;-67
2023/05/02 00:09:46;;;;;;;7.23;5.20;;;10.00;99.90;;;;;;10214495;23;20162;-68
2023/05/02 00:13:50;;;;;;;8.30;5.70;;;10.00;99.90;;;;;;10186939;23;20162;-68
2023/05/02 00:18:23;;;;;;;7.43;5.13;;;10.00;99.90;;;;;;10189656;23;20162;-68
2023/05/02 00:22:27;;;;;;;7.00;5.13;;;10.00;99.90;;;;;;10209759;23;20186;-67
2023/05/02 00:31:12;;;;;;;6.23;4.70;;;10.20;99.90;;;;;;10198000;23;20169;-68
2023/05/02 00:35:24;;;;;;;6.60;5.00;;;10.40;99.90;;;;;;10212835;23;20162;-69
2023/05/02 00:39:38;;;;;;;6.67;5.03;;;10.80;99.90;;;;;;10185471;23;20247;-69
2023/05/02 00:44:07;;;;;;;6.63;5.37;;;11.20;99.90;;;;;;10186803;23;20189;-68
2023/05/02 00:48:11;;;;;;;7.00;4.97;;;11.50;99.90;;;;;;10185035;23;20160;-68
2023/05/02 00:52:16;;;;;;;8.17;4.53;;;11.60;99.90;;;;;;10183950;23;20162;-69
2023/05/02 00:56:29;;;;;;;5.97;4.30;;;11.60;99.90;;;;;;10185584;23;20227;-68
2023/05/02 01:01:01;;;;;;;4.23;3.50;;;11.60;99.90;;;;;;10185241;23;20170;-66
2023/05/02 01:05:42;;;;;;;6.20;4.00;;;11.50;99.90;;;;;;10128197;23;20265;-69
2023/05/02 01:10:28;;;;;;;3.93;3.53;;;11.50;99.90;;;;;;10016049;23;20266;-68
2023/05/02 01:15:06;;;;;;;6.63;3.63;;;11.50;99.90;;;;;;10058881;23;20160;-69
2023/05/02 01:19:34;;;;;;;6.63;3.93;;;11.50;99.90;;;;;;10053873;23;20156;-68
2023/05/02 01:24:04;;;;;;;5.23;3.90;;;11.50;99.90;;;;;;10059422;23;20276;-69
2023/05/02 01:29:07;;;;;;;6.07;3.87;;;11.40;99.90;;;;;;10062757;23;20161;-69
2023/05/02 01:33:20;;;;;;;5.27;3.43;;;11.50;99.90;;;;;;9976221;23;20168;-69
2023/05/02 01:42:02;;;;;;;4.43;3.40;;;11.60;99.90;;;;;;10046110;23;20184;-68
2023/05/02 01:46:24;;;;;;;6.23;4.00;;;11.60;99.90;;;;;;10037458;23;20261;-68
2023/05/02 01:50:35;;;;;;;;;;;;;;;;;;;;;
2023/05/02 01:55:01;;;;;;;5.07;3.43;;;11.40;99.90;;;;;;10100058;23;20167;-68
2023/05/02 01:59:31;;;;;;;6.00;4.10;;;11.30;99.90;;;;;;10113159;23;20167;-68
2023/05/02 02:03:35;;;;;;;4.03;3.63;;;11.30;99.90;;;;;;10115930;23;20306;-69
2023/05/02 02:07:50;;;;;;;4.93;3.67;;;11.20;99.90;;;;;;10115632;23;20170;-66
2023/05/02 02:12:21;;;;;;;5.70;4.20;;;11.20;99.90;;;;;;10113813;23;20219;-68
2023/05/02 02:16:37;;;;;;;3.97;3.47;;;11.20;99.90;;;;;;10103625;23;20187;-68
2023/05/02 02:21:00;;;;;;;5.83;4.37;;;11.10;99.90;;;;;;10114289;23;20164;-67
2023/05/02 02:25:33;;;;;;;6.33;4.20;;;11.20;1.00;;;;;;10112252;23;20244;-68
2023/05/02 02:29:52;;;;;;;5.60;3.87;;;11.20;1.00;;;;;;10110791;23;20188;-69
2023/05/02 02:33:59;;;;;;;7.57;3.80;;;11.20;1.00;;;;;;10113036;23;20164;-68
2023/05/02 02:38:22;;;;;;;6.27;4.00;;;11.20;1.00;;;;;;10112161;23;20164;-69
2023/05/02 02:42:39;;;;;;;6.80;4.47;;;11.20;1.00;;;;;;10114110;23;20187;-68
2023/05/02 02:47:14;;;;;;;8.27;4.30;;;11.20;1.00;;;;;;10110918;23;20165;-69
2023/05/02 02:51:45;;;;;;;;;;;;;;;;;;;;;
2023/05/02 02:56:28;;;;;;;5.67;4.50;;;11.20;1.00;;;;;;10117144;23;20157;-68
2023/05/02 03:00:34;;;;;;;5.73;4.97;;;11.20;1.00;;;;;;9925110;23;20163;-68
2023/05/02 03:05:03;;;;;;;7.13;5.00;;;11.10;12.60;;;;;;10004619;23;20242;-68
2023/05/02 03:09:56;;;;;;;;;;;;;;;;;;;;;
2023/05/02 03:14:08;;;;;;;6.47;5.20;;;11.10;99.90;;;;;;9971020;23;20143;-67
2023/05/02 03:23:28;;;;;;;7.37;5.33;;;11.00;99.90;;;;;;9933849;23;20212;-67
2023/05/02 03:28:11;;;;;;;6.00;5.10;;;10.90;99.90;;;;;;9877491;24;20172;-68
2023/05/02 03:32:27;;;;;;;8.13;5.77;;;10.90;99.90;;;;;;9872118;24;20165;-68
2023/05/02 03:37:08;;;;;;;11.87;6.20;;;11.00;99.90;;;;;;9825684;24;20205;-68
2023/05/02 03:41:21;;;;;;;7.07;6.00;;;11.00;99.90;;;;;;9826545;24;20255;-68
2023/05/02 03:45:39;;;;;;;7.00;5.57;;;11.00;99.90;;;;;;9804211;24;20197;-67
2023/05/02 03:49:45;;;;;;;8.37;5.47;;;11.10;99.90;;;;;;9834486;23;20167;-69
2023/05/02 03:54:04;;;;;;;6.27;5.57;;;11.20;99.90;;;;;;9981118;23;20165;-67
2023/05/02 03:58:16;;;;;;;7.37;5.33;;;11.20;99.90;;;;;;9991465;23;20176;-68
2023/05/02 04:02:17;;;;;;;6.63;5.73;;;11.20;99.90;;;;;;9988751;23;20208;-67
2023/05/02 04:06:23;;;;;;;10.10;5.63;;;11.20;99.90;;;;;;10032769;23;20177;-68
2023/05/02 04:15:01;;;;;;;8.20;5.67;;;11.30;97.90;;;;;;10050802;23;20207;-66
2023/05/02 04:19:11;;;;;;;7.17;6.10;;;11.30;57.20;;;;;;10057639;23;20164;-69
2023/05/02 04:23:37;;;;;;;8.90;6.00;;;11.50;4.00;;;;;;10119094;23;20200;-68
2023/05/02 04:27:57;;;;;;;6.87;5.80;;;11.60;1.00;;;;;;10114323;23;20169;-68
2023/05/02 04:32:15;;;;;;;8.13;6.60;;;11.70;1.00;;;;;;10114364;23;20235;-70
2023/05/02 04:40:54;;;;;;;7.47;5.63;;;11.90;1.00;;;;;;10114318;23;20166;-67
2023/05/02 04:45:16;;;;;;;9.13;5.63;;;12.00;1.00;;;;;;10115160;23;20214;-68
2023/05/02 04:49:54;;;;;;;6.77;5.40;;;12.00;99.90;;;;;;10113971;23;20153;-68
2023/05/02 04:54:16;;;;;;;8.30;5.93;;;12.10;99.90;;;;;;10107772;23;20166;-68
2023/05/02 04:58:26;;;;;;;6.17;5.63;;;12.30;99.90;;;;;;10110559;23;20168;-69
2023/05/02 05:02:39;;;;;;;7.73;6.17;;;12.30;99.90;;;;;;10114958;23;20207;-68
2023/05/02 05:07:15;;;;;;;7.50;6.63;;;12.40;99.90;;;;;;10109510;23;20182;-67
2023/05/02 05:11:25;;;;;;;7.60;6.57;;;12.50;99.90;;;;;;10007007;23;20163;-69
2023/05/02 05:15:36;;;;;;;10.77;6.23;;;12.50;99.90;;;;;;10109941;23;20222;-68
2023/05/02 05:19:48;;;;;;;8.87;6.30;;;12.60;99.90;;;;;;10111795;23;20164;-68
2023/05/02 05:28:19;;;;;;;8.63;6.10;;;12.90;99.90;;;;;;10040147;23;20166;-69
2023/05/02 05:32:27;;;;;;;8.53;6.27;;;13.10;99.90;;;;;;10114973;23;20198;-68
2023/05/02 05:36:32;;;;;;;7.70;6.07;;;13.30;99.90;;;;;;10111416;23;20171;-67
2023/05/02 05:40:41;;;;;;;7.73;5.77;;;13.50;99.90;;;;;;10109195;23;20164;-69
2023/05/02 05:44:56;;;;;;;8.60;6.47;;;13.60;99.90;;;;;;10115665;23;20174;-69
2023/05/02 05:49:06;;;;;;;6.10;5.50;;;13.60;99.90;;;;;;10110500;23;20167;-68
2023/05/02 05:53:10;;;;;;;7.33;6.30;;;13.60;99.90;;;;;;10060116;23;20203;-65
2023/05/02 05:57:13;;;;;;;10.40;5.77;;;13.70;99.90;;;;;;10031972;23;20172;-67
2023/05/02 06:01:23;;;;;;;8.57;5.93;;;13.80;99.90;;;;;;10035960;23;20168;-69
2023/05/02 06:05:30;;;;;;;8.47;6.53;;;14.00;93.30;;;;;;10037341;23;20200;-68
2023/05/02 06:10:15;;;;;;;;;;;;;;;;;;;;;
2023/05/02 06:14:51;;;;;;;6.53;5.37;;;14.10;90.50;;;;;;10051695;23;20165;-67
2023/05/02 06:18:55;;;;;;;6.60;5.20;;;14.00;72.30;;;;;;10110386;23;20336;-68
2023/05/02 06:23:14;;;;;;;9.07;6.10;;;14.20;61.80;;;;;;10111320;23;20192;-67
2023/05/02 06:27:21;;;;;;;9.53;5.90;;;14.30;52.50;;;;;;10108975;23;20164;-67
2023/05/02 06:31:32;;;;;;;8.73;5.80;;;14.50;48.00;;;;;;10111807;23;20171;-67
2023/05/02 06:40:22;;;;;;;6.43;5.50;;;14.60;31.30;;;;;;10113831;23;20167;-64
2023/05/02 06:44:27;;;;;;;7.87;6.13;;;14.60;30.40;;;;;;10115129;23;20195;-70
2023/05/02 06:48:59;;;;;;;9.63;6.03;;;14.60;19.20;;;;;;10113858;23;20160;-69
2023/05/02 06:53:08;;;;;;;7.47;5.63;;;14.80;26.70;;;;;;10107582;23;20163;-66
2023/05/02 06:57:20;;;;;;;8.33;6.00;;;14.90;15.10;;;;;;10117369;23;20238;-69
2023/05/02 07:01:30;;;;;;;6.50;5.80;;;15.30;6.10;;;;;;10114908;23;20167;-66
2023/05/02 07:05:39;;;;;;;7.53;5.33;;;15.50;1.40;;;;;;10116331;23;20260;-68
2023/05/02 07:09:43;;;;;;;8.87;5.33;;;15.70;1.00;;;;;;10118342;23;20160;-67
2023/05/02 07:13:53;;;;;;;7.47;5.27;;;15.50;3.00;;;;;;10116939;23;20214;-69
2023/05/02 07:17:57;;;;;;;7.63;5.87;;;15.90;1.00;;;;;;10117411;23;20231;-69
2023/05/02 07:22:10;;;;;;;6.73;5.73;;;16.10;1.00;;;;;;10117009;23;20192;-69
2023/05/02 07:26:22;;;;;;;8.23;5.43;;;16.00;1.00;;;;;;10116133;23;20160;-67
2023/05/02 07:30:42;;;;;;;7.90;5.47;;;16.50;1.00;;;;;;10116822;23;20160;-70
2023/05/02 07:34:43;;;;;;;8.33;4.93;;;16.80;1.00;;;;;;10116821;23;20179;-69
2023/05/02 07:38:59;;;;;;;6.80;5.40;;;17.00;1.00;;;;;;10116099;23;20167;-68
2023/05/02 07:43:14;;;;;;;;;;;;;;;;;;;;;
2023/05/02 07:47:18;;;;;;;6.70;5.07;;;18.00;1.00;;;;;;10115978;23;20140;-68
2023/05/02 07:51:34;;;;;;;6.33;4.50;;;17.40;1.00;;;;;;10116802;23;20152;-68
2023/05/02 07:55:41;;;;;;;7.30;5.10;;;17.00;1.00;;;;;;10118376;23;20137;-69
2023/05/02 07:59:42;;;;;;;7.07;4.97;;;16.80;1.00;;;;;;10116787;23;20199;-68
2023/05/02 08:03:43;;;;;;;6.27;5.07;;;16.60;1.00;;;;;;10115952;23;20270;-67
2023/05/02 08:07:45;;;;;;;7.33;5.13;;;16.80;1.00;;;;;;10116885;23;20164;-67
2023/05/02 08:12:02;;;;;;;7.30;4.93;;;17.00;1.00;;;;;;10117687;23;20195;-67
2023/05/02 08:16:03;;;;;;;9.03;5.93;;;17.40;1.00;;;;;;10114902;23;20195;-68
2023/05/02 08:20:06;;;;;;;8.70;5.43;;;16.90;1.00;;;;;;10115735;23;20166;-69
2023/05/02 08:24:07;;;;;;;7.67;5.60;;;16.50;1.00;;;;;;10110993;23;20192;-69
2023/05/02 08:28:40;;;;;;;6.10;5.50;;;16.20;1.00;;;;;;10062676;23;20220;-69
2023/05/02 08:33:33;;;;;;;7.80;5.20;;;16.50;1.00;;;;;;9963689;23;20164;-68
2023/05/02 08:37:35;;;;;;;6.20;5.40;;;17.00;1.00;;;;;;10038494;23;20223;-69
2023/05/02 08:41:51;;;;;;;9.23;5.37;;;17.00;1.00;;;;;;10036795;23;20164;-69
2023/05/02 08:46:20;;;;;;;7.30;5.57;;;17.30;1.00;;;;;;10038724;23;20176;-68
2023/05/02 08:50:24;;;;;;;6.63;4.27;;;17.50;1.00;;;;;;10064053;23;20165;-69
2023/05/02 08:54:28;;;;;;;8.70;4.87;;;17.40;1.00;;;;;;10038668;23;20168;-69
2023/05/02 08:58:41;;;;;;;6.20;5.00;;;17.60;1.00;;;;;;10040731;23;20192;-69
2023/05/02 09:03:31;;;;;;;;;;;;;;;;;;;;;
2023/05/02 09:08:13;;;;;;;6.67;4.70;;;17.70;1.00;;;;;;10116235;23;20175;-71
2023/05/02 09:12:23;;;;;;;5.67;4.20;;;17.70;1.00;;;;;;10116249;23;20160;-69
2023/05/02 09:16:28;;;;;;;8.33;4.27;;;17.40;1.00;;;;;;10116080;23;20215;-69
2023/05/02 09:20:46;;;;;;;6.37;4.27;;;17.40;1.00;;;;;;10116464;23;20175;-71
2023/05/02 09:24:59;;;;;;;8.17;4.53;;;17.30;1.00;;;;;;10115967;23;20182;-69
2023/05/02 09:29:04;;;;;;;5.60;4.37;;;17.30;1.00;;;;;;10117018;23;20160;-68
2023/05/02 09:33:15;;;;;;;5.77;4.47;;;17.30;1.00;;;;;;10118536;23;20172;-70
2023/05/02 09:37:40;;;;;;;7.57;3.97;;;17.40;1.00;;;;;;10121763;23;20141;-70
2023/05/02 09:41:49;;;;;;;6.47;4.07;;;17.60;1.00;;;;;;10119192;23;20144;-69
2023/05/02 09:46:09;;;;;;;4.97;3.53;;;17.80;1.00;;;;;;10121043;23;20156;-70
2023/05/02 09:50:10;;;;;;;5.13;3.60;;;18.20;1.00;;;;;;10119160;23;20160;-70
2023/05/02 09:54:45;;;;;;;5.50;3.77;;;18.20;1.00;;;;;;10118586;23;20179;-69
2023/05/02 09:58:48;;;;;;;4.53;3.40;;;17.90;1.00;;;;;;10119703;23;20160;-68
2023/05/02 10:02:51;;;;;;;4.57;3.47;;;17.70;1.00;;;;;;10119409;23;20191;-70
2023/05/02 10:06:58;;;;;;;4.57;3.20;;;17.70;1.00;;;;;;10118622;23;20176;-70
2023/05/02 10:11:02;;;;;;;5.30;3.73;;;17.80;1.00;;;;;;10117946;23;20168;-69
2023/05/02 10:15:17;;;;;;;4.20;3.27;;;17.80;1.00;;;;;;10120991;23;20156;-67
2023/05/02 10:19:43;;;;;;;4.53;3.13;;;17.80;1.00;;;;;;10117076;23;20174;-69
2023/05/02 10:24:03;;;;;;;6.10;3.40;;;18.20;1.00;;;;;;10118868;23;20381;-68
2023/05/02 10:28:11;;;;;;;5.23;3.20;;;18.10;1.00;;;;;;10117489;23;20171;-68
2023/05/02 10:37:00;;;;;;;2.73;2.30;;;17.90;1.00;;;;;;10107365;23;20164;-69
2023/05/02 10:41:30;;;;;;;4.63;2.43;;;18.20;1.00;;;;;;10118514;23;20171;-69
2023/05/02 10:45:42;;;;;;;3.80;1.97;;;18.40;1.00;;;;;;10118621;23;20168;-69
2023/05/02 10:50:03;;;;;;;3.50;2.07;;;18.20;1.00;;;;;;10120599;23;20238;-69
2023/05/02 10:54:33;;;;;;;3.13;1.83;;;18.00;1.00;;;;;;10116827;23;20166;-69
2023/05/02 10:59:56;;;;;;;2.93;2.10;;;17.80;1.00;;;;;;10120539;23;20170;-70
2023/05/02 11:04:00;;;;;;;3.43;1.93;;;18.10;1.00;;;;;;10050580;23;20199;-69
2023/05/02 11:08:22;;;;;;;2.83;2.17;;;18.20;1.00;;;;;;10116219;23;20183;-69
2023/05/02 11:12:56;;;;;;;3.17;2.10;;;18.50;1.00;;;;;;10105226;23;20195;-68
2023/05/02 11:17:03;;;;;;;5.67;2.27;;;19.10;1.00;;;;;;10119379;23;20143;-69
2023/05/02 11:21:37;;;;;;;6.13;2.40;;;19.60;1.00;;;;;;10122142;23;20188;-69
2023/05/02 11:26:06;;;;;;;3.23;2.13;;;18.80;1.00;;;;;;10112778;23;20202;-70
2023/05/02 11:30:09;;;;;;;2.57;2.13;;;18.50;1.00;;;;;;10118305;23;20164;-70
2023/05/02 11:34:41;;;;;;;4.30;2.50;;;18.40;1.00;;;;;;10099657;23;20175;-70
2023/05/02 11:38:42;;;;;;;3.47;2.27;;;18.50;1.00;;;;;;10120375;23;20195;-69
2023/05/02 11:42:46;;;;;;;5.87;2.57;;;19.30;1.00;;;;;;10115154;23;20187;-70
2023/05/02 11:47:00;;;;;;;4.70;2.37;;;19.50;1.00;;;;;;10119346;23;20164;-69
2023/05/02 11:51:13;;;;;;;3.83;2.30;;;19.40;1.00;;;;;;10115298;23;20152;-69
2023/05/02 11:55:19;;;;;;;3.57;2.10;;;18.80;1.00;;;;;;10116895;23;20160;-68
2023/05/02 11:59:46;;;;;;;5.67;2.50;;;18.70;1.00;;;;;;10144480;23;20172;-68
2023/05/02 12:04:56;;;;;;;3.30;2.33;;;18.80;1.00;;;;;;10100319;23;20196;-69
2023/05/02 12:15:24;;;;;;;;;;;;;;;;;;;;;
2023/05/02 12:20:15;;;;;;;4.47;2.30;;;17.80;1.00;;;;;;9948745;23;20169;-73
2023/05/02 12:24:23;;;;;;;3.77;2.30;;;18.30;1.00;;;;;;9946673;23;20201;-71
2023/05/02 12:29:05;;;;;;;2.97;2.23;;;18.40;1.00;;;;;;9997976;23;20164;-74
2023/05/02 12:44:06;;;;;;;;;;;;;;;;;;;;;
2023/05/02 12:48:43;;;;;;;4.53;3.40;;;18.20;1.00;;;;;;10068334;23;20167;-70
2023/05/02 12:57:46;;;;;;;4.63;3.37;;;17.50;1.00;;;;;;10116659;23;20171;-70
2023/05/02 13:06:05;;;;;;;4.67;3.50;;;17.90;1.00;;;;;;10113956;23;20195;-68
2023/05/02 13:10:24;;;;;;;3.30;2.97;;;18.20;1.00;;;;;;10116396;23;20227;-67
2023/05/02 13:15:08;;;;;;;3.97;3.20;;;18.40;1.00;;;;;;10117009;23;20167;-69
2023/05/02 13:19:15;;;;;;;5.63;3.70;;;18.40;1.00;;;;;;9993325;23;20243;-67
2023/05/02 13:23:42;;;;;;;;;;;;;;;;;;;;;
2023/05/02 13:28:22;;;;;;;6.23;3.20;;;18.30;1.00;;;;;;10121605;23;20160;-71
2023/05/02 13:32:46;;;;;;;3.77;2.80;;;18.50;1.00;;;;;;10120387;23;20250;-68
2023/05/02 13:37:29;;;;;;;3.73;3.00;;;18.70;1.00;;;;;;10120258;23;20148;-69
2023/05/02 13:47:05;;;;;;;3.60;3.00;;;18.40;1.00;;;;;;9973095;23;20242;-69
2023/05/02 13:56:57;;;;;;;2.93;2.30;;;17.90;1.00;;;;;;9970011;23;20173;-71
2023/05/02 14:11:47;;;;;;;4.30;2.87;;;16.50;1.00;;;;;;9832212;24;20168;-71
2023/05/02 14:25:57;;;;;;;4.20;3.30;;;16.60;1.00;;;;;;10068465;23;20248;-71
2023/05/02 14:29:59;;;;;;;3.90;3.40;;;17.00;1.00;;;;;;10042628;23;20161;-70
2023/05/02 14:34:47;;;;;;;3.97;3.13;;;17.20;1.00;;;;;;10046903;23;20175;-71
2023/05/02 14:39:19;;;;;;;;;;;;;;;;;;;;;
2023/05/02 14:43:53;;;;;;;2.97;2.53;;;17.50;1.00;;;;;;10063860;23;20282;-70
2023/05/02 14:48:07;;;;;;;2.97;2.63;;;17.20;1.00;;;;;;10162173;23;20164;-69
2023/05/02 14:56:51;;;;;;;4.37;2.93;;;17.10;1.00;;;;;;10168637;23;20367;-70
2023/05/02 15:01:16;;;;;;;4.30;2.30;;;17.20;1.00;;;;;;10145062;23;20162;-70
2023/05/02 15:05:19;;;;;;;3.27;2.53;;;16.90;1.00;;;;;;10171294;23;20209;-70
2023/05/02 15:09:21;;;;;;;6.00;2.90;;;16.80;1.00;;;;;;10142938;23;20211;-69
2023/05/02 15:13:51;;;;;;;3.33;3.00;;;16.90;1.00;;;;;;10142765;23;20262;-70
2023/05/02 15:17:54;;;;;;;3.90;3.17;;;17.00;1.00;;;;;;10167327;23;20163;-70
2023/05/02 15:22:08;;;;;;;5.23;2.90;;;16.90;1.00;;;;;;10141356;23;20248;-69
2023/05/02 15:26:09;;;;;;;3.47;2.97;;;16.80;1.00;;;;;;10169565;23;20261;-68
2023/05/02 15:30:22;;;;;;;3.30;3.00;;;16.80;1.00;;;;;;10144060;23;20159;-71
2023/05/02 15:34:26;;;;;;;3.70;2.93;;;16.80;1.00;;;;;;10170380;23;20144;-71
2023/05/02 15:38:27;;;;;;;4.80;3.70;;;16.60;1.00;;;;;;10143391;23;20185;-69
2023/05/02 15:42:47;;;;;;;;;;;;;;;;;;;;;
2023/05/02 15:47:08;;;;;;;3.97;3.33;;;16.50;1.00;;;;;;10163650;23;20159;-69
2023/05/02 15:51:29;;;;;;;5.00;3.87;;;16.70;1.00;;;;;;10141662;23;20186;-70
2023/05/02 15:55:31;;;;;;;4.63;3.33;;;16.60;1.00;;;;;;10140712;23;20159;-69
2023/05/02 15:59:35;;;;;;;4.23;3.70;;;16.60;1.00;;;;;;10171097;23;20155;-68
2023/05/02 16:03:42;;;;;;;3.27;2.67;;;16.50;1.00;;;;;;10014912;23;20201;-68
2023/05/02 16:08:20;;;;;;;4.17;3.40;;;16.40;1.00;;;;;;9994152;23;20167;-69
2023/05/02 16:12:25;;;;;;;3.03;2.73;;;16.40;1.00;;;;;;9984143;23;20252;-69
2023/05/02 16:21:18;;;;;;;4.13;3.40;;;16.20;1.00;;;;;;9962597;23;20185;-68
2023/05/02 16:25:27;;;;;;;4.90;3.13;;;16.30;1.00;;;;;;9942626;23;20204;-70
2023/05/02 16:29:37;;;;;;;3.87;2.67;;;16.50;1.00;;;;;;9967709;23;20166;-69
2023/05/02 16:33:48;;;;;;;3.50;2.13;;;16.60;1.00;;;;;;10082645;23;20242;-67
2023/05/02 16:37:52;;;;;;;4.60;3.00;;;16.60;1.00;;;;;;10141596;23;20169;-67
2023/05/02 16:42:14;;;;;;;3.40;2.73;;;16.50;1.00;;;;;;10138076;23;20302;-69
2023/05/02 16:46:29;;;;;;;3.60;2.63;;;16.30;1.00;;;;;;10139282;23;20171;-69
2023/05/02 16:50:52;;;;;;;2.73;2.33;;;16.00;1.00;;;;;;10131367;23;20159;-70
2023/05/02 16:55:37;;;;;;;3.90;2.47;;;15.70;1.00;;;;;;10138380;23;20174;-69
2023/05/02 16:59:39;;;;;;;2.93;2.40;;;15.50;1.00;;;;;;10136936;23;20167;-68
2023/05/02 17:04:18;;;;;;;2.53;2.20;;;15.40;1.00;;;;;;10136438;23;20234;-70
2023/05/02 17:08:20;;;;;;;4.00;2.33;;;15.20;1.00;;;;;;10139684;23;20191;-69
2023/05/02 17:12:45;;;;;;;2.43;2.23;;;15.00;1.00;;;;;;10017023;23;20211;-68
2023/05/02 17:16:46;;;;;;;2.20;1.97;;;14.70;1.00;;;;;;10018497;23;20165;-68
2023/05/02 17:20:48;;;;;;;2.27;1.80;;;14.40;1.00;;;;;;10016215;23;20206;-70
2023/05/02 17:25:05;;;;;;;6.37;2.10;;;14.30;1.00;;;;;;10016581;23;20197;-68
2023/05/02 17:29:51;;;;;;;3.10;2.60;;;14.30;1.00;;;;;;10016635;23;20161;-69
2023/05/02 17:34:11;;;;;;;4.03;2.70;;;14.20;1.00;;;;;;9976501;23;20165;-68
2023/05/02 17:38:18;;;;;;;3.57;2.50;;;14.20;1.00;;;;;;10016090;23;20217;-67
2023/05/02 17:42:21;;;;;;;5.87;3.23;;;14.10;1.00;;;;;;10017419;23;20189;-68
2023/05/02 17:46:32;;;;;;;4.37;2.90;;;14.00;1.00;;;;;;10016728;23;20305;-70
2023/05/02 17:50:55;;;;;;;2.40;2.13;;;13.90;1.00;;;;;;10144911;23;20156;-70
2023/05/02 17:55:09;;;;;;;4.83;3.03;;;13.80;1.00;;;;;;10141666;23;20159;-70
2023/05/02 18:00:03;;;;;;;5.60;3.10;;;13.70;1.00;;;;;;10142084;23;20191;-69
2023/05/02 18:04:26;;;;;;;4.90;3.63;;;13.60;1.00;;;;;;10085140;23;20208;-68
2023/05/02 18:13:22;;;;;;;4.47;3.00;;;13.40;8.10;;;;;;10069797;23;20156;-68
2023/05/02 18:17:40;;;;;;;;;;;;;;;;;;;;;
2023/05/02 18:26:44;;;;;;;4.93;2.83;;;13.20;41.90;;;;;;10032805;23;20164;-69
2023/05/02 18:31:10;;;;;;;5.50;3.03;;;13.10;54.70;;;;;;10066429;23;20160;-68
2023/05/02 18:35:21;;;;;;;5.17;3.10;;;13.00;68.70;;;;;;10069548;23;20225;-70
2023/05/02 18:39:36;;;;;;;;;;;;;;;;;;;;;
2023/05/02 18:43:58;;;;;;;5.50;3.50;;;12.90;76.40;;;;;;10067098;23;20189;-70
2023/05/02 18:48:24;;;;;;;4.37;2.93;;;12.80;91.10;;;;;;10069827;23;20157;-70
2023/05/02 18:52:49;;;;;;;5.77;3.50;;;12.80;99.90;;;;;;10044184;23;20174;-70
2023/05/02 18:56:58;;;;;;;6.93;3.20;;;12.70;99.90;;;;;;10043612;23;20164;-70
2023/05/02 19:06:40;;;;;;;3.97;3.10;;;12.50;99.90;;;;;;10167800;23;20230;-70
2023/05/02 19:10:56;;;;;;;4.47;3.30;;;12.40;99.90;;;;;;10167877;23;20200;-71
2023/05/02 19:29:45;;;;;;;7.17;3.73;;;12.30;99.90;;;;;;10160658;23;20390;-71
2023/05/02 19:34:36;;;;;;;4.13;3.23;;;12.30;99.90;;;;;;10071570;23;20238;-68
2023/05/02 19:48:51;;;;;;;7.77;3.47;;;12.30;99.90;;;;;;10158448;23;20181;-71
2023/05/02 19:53:34;;;;;;;6.77;3.50;;;12.30;99.90;;;;;;10120642;23;20236;-70
2023/05/02 19:58:33;;;;;;;7.70;3.33;;;12.30;84.30;;;;;;10078069;23;20296;-70
2023/05/02 20:08:30;;;;;;;4.93;3.07;;;12.20;49.00;;;;;;9969220;23;20165;-69
2023/05/02 20:13:05;;;;;;;5.27;2.80;;;12.20;36.70;;;;;;9945376;23;20283;-69
2023/05/02 20:18:01;;;;;;;;;;;;;;;;;;;;;
2023/05/02 20:22:40;;;;;;;;;;;;;;;;;;;;;
2023/05/02 20:31:58;;;;;;;12.37;3.40;;;11.70;31.70;;;;;;10136555;23;20160;-69
2023/05/02 20:36:14;;;;;;;7.70;3.40;;;11.60;32.00;;;;;;9946938;23;20167;-70
2023/05/02 20:45:30;;;;;;;8.47;3.87;;;11.40;25.00;;;;;;10098069;23;20231;-70
2023/05/02 20:49:38;;;;;;;5.93;3.43;;;11.30;20.00;;;;;;10020049;23;20171;-70
2023/05/02 20:53:48;;;;;;;6.50;3.30;;;11.00;14.00;;;;;;9998603;23;20168;-71
2023/05/02 21:07:51;;;;;;;8.23;3.70;;;10.50;13.60;;;;;;10021812;23;20188;-72
2023/05/02 21:12:08;;;;;;;8.20;4.00;;;10.30;14.60;;;;;;10038448;23;20216;-70
2023/05/02 21:16:32;;;;;;;9.93;3.53;;;10.20;12.70;;;;;;10067880;23;20196;-72
2023/05/02 21:30:28;;;;;;;7.53;3.43;;;9.90;3.80;;;;;;9883175;23;20169;-70
2023/05/02 21:40:05;;;;;;;7.47;3.33;;;9.70;1.00;;;;;;9945529;23;20165;-71
2023/05/02 21:44:13;;;;;;;7.00;3.73;;;9.60;1.00;;;;;;9967782;23;20279;-69
2023/05/02 21:53:47;;;;;;;8.83;3.83;;;9.40;3.40;;;;;;10145040;23;20258;-70
2023/05/02 22:18:12;;;;;;;8.13;3.70;;;9.10;11.90;;;;;;10019406;23;20169;-70
2023/05/02 22:22:53;;;;;;;9.50;3.87;;;9.10;10.10;;;;;;10064123;23;20206;-71
2023/05/02 22:27:45;;;;;;;8.07;3.87;;;9.00;7.70;;;;;;10165784;23;20159;-69
2023/05/02 22:36:35;;;;;;;10.53;4.00;;;8.90;11.10;;;;;;10023441;23;20165;-69
2023/05/02 22:41:06;;;;;;;;;;;;;;;;;;;;;
2023/05/02 22:45:14;;;;;;;8.60;3.83;;;8.80;24.50;;;;;;10082129;23;20198;-71
2023/05/02 22:54:09;;;;;;;8.60;4.20;;;8.70;16.70;;;;;;9977222;23;20277;-70
2023/05/02 22:58:30;;;;;;;9.63;3.70;;;8.60;19.30;;;;;;10108575;23;20166;-71
2023/05/02 23:02:47;;;;;;;8.77;3.10;;;8.50;24.00;;;;;;10147575;23;20195;-71
2023/05/02 23:07:15;;;;;;;6.67;3.90;;;8.30;29.40;;;;;;10150004;23;20194;-72
2023/05/02 23:11:42;;;;;;;8.57;3.37;;;8.20;41.40;;;;;;10148289;23;20178;-72
2023/05/02 23:16:19;;;;;;;8.50;3.83;;;8.10;49.30;;;;;;10122863;23;20155;-70
2023/05/02 23:20:45;;;;;;;8.07;3.47;;;8.00;44.80;;;;;;10125628;23;20179;-70
2023/05/02 23:25:23;;;;;;;;;;;;;;;;;;;;;
2023/05/02 23:30:09;;;;;;;5.70;2.83;;;7.90;38.60;;;;;;10176234;23;20163;-70
2023/05/02 23:34:16;;;;;;;11.30;3.67;;;7.70;41.00;;;;;;10167998;23;20295;-71
2023/05/02 23:38:40;;;;;;;6.47;3.00;;;7.50;61.90;;;;;;10169256;23;20167;-71
2023/05/02 23:43:12;;;;;;;;;;;;;;;;;;;;;
2023/05/02 23:47:49;;;;;;;9.03;3.13;;;7.20;93.70;;;;;;10168901;23;20156;-71
2023/05/02 23:52:15;;;;;;;4.60;3.13;;;7.00;99.90;;;;;;9879566;23;20277;-70
2023/05/02 23:56:28;;;;;;;6.43;3.30;;;6.80;99.90;;;;;;9881135;24;20163;-70
